Time,TemperatureF,DewpointF,PressureIn,WindDirection,WindDirectionDegrees,WindSpeedMPH,WindSpeedGustMPH,Humidity,HourlyPrecipIn,Conditions,Clouds,dailyrainin,SoftwareType,DateUTC
2013-02-02 00:03:00,12.0,8.0,30.30,SSW,210,3.0,10.0,82,0.00,,,0.00,,2013-02-02 05:03:00,
2013-02-02 00:12:00,12.0,8.0,30.30,SSW,210,3.0,10.0,82,0.00,,,0.00,,2013-02-02 05:12:00,
2013-02-02 00:22:00,12.0,7.0,30.30,SSW,207,2.0,8.0,81,0.00,,,0.00,,2013-02-02 05:22:00,
2013-02-02 00:33:00,12.0,7.0,30.29,SW,225,2.0,6.0,81,0.00,,,0.00,,2013-02-02 05:33:00,
2013-02-02 00:42:00,12.0,7.0,30.29,SW,225,2.0,6.0,81,0.00,,,0.00,,2013-02-02 05:42:00,
2013-02-02 00:52:00,13.0,8.0,30.29,SW,223,2.0,6.0,81,0.00,,,0.00,,2013-02-02 05:52:00,
2013-02-02 01:02:00,13.0,8.0,30.29,SSW,200,2.0,7.0,81,0.00,,,0.00,,2013-02-02 06:02:00,
2013-02-02 01:12:00,13.0,8.0,30.29,SSW,200,2.0,7.0,81,0.00,,,0.00,,2013-02-02 06:12:00,
2013-02-02 01:22:00,13.0,9.0,30.28,SSW,202,2.0,7.0,82,0.00,,,0.00,,2013-02-02 06:22:00,
2013-02-02 01:32:00,14.0,10.0,30.28,SSW,196,1.0,6.0,82,0.00,,,0.00,,2013-02-02 06:32:00,
2013-02-02 01:42:00,14.0,10.0,30.28,SSW,196,1.0,6.0,82,0.00,,,0.00,,2013-02-02 06:42:00,
2013-02-02 01:52:00,14.0,9.0,30.28,SSW,210,2.0,7.0,81,0.00,,,0.00,,2013-02-02 06:52:00,
2013-02-02 02:02:00,15.0,10.0,30.27,SW,218,2.0,8.0,81,0.00,,,0.00,,2013-02-02 07:02:00,
2013-02-02 02:12:00,15.0,10.0,30.27,SW,218,2.0,8.0,81,0.00,,,0.00,,2013-02-02 07:12:00,
2013-02-02 02:21:00,15.0,10.0,30.26,SSW,211,2.0,8.0,80,0.00,,,0.00,,2013-02-02 07:21:00,
2013-02-02 02:32:00,15.0,10.0,30.25,SW,223,2.0,7.0,80,0.00,,,0.00,,2013-02-02 07:32:00,
2013-02-02 02:42:00,15.0,10.0,30.25,SW,223,2.0,7.0,80,0.00,,,0.00,,2013-02-02 07:42:00,
2013-02-02 02:52:00,15.0,10.0,30.27,SW,227,1.0,8.0,81,0.00,,,0.00,,2013-02-02 07:52:00,
2013-02-02 03:01:00,15.0,10.0,30.26,SW,216,3.0,7.0,81,0.00,,,0.00,,2013-02-02 08:01:00,
2013-02-02 03:11:00,15.0,10.0,30.26,SW,216,3.0,7.0,81,0.00,,,0.00,,2013-02-02 08:11:00,
2013-02-02 03:21:00,16.0,11.0,30.26,SW,224,3.0,9.0,82,0.00,,,0.00,,2013-02-02 08:21:00,
2013-02-02 03:31:00,16.0,12.0,30.25,SW,236,2.0,8.0,83,0.00,,,0.00,,2013-02-02 08:31:00,
2013-02-02 03:41:00,16.0,12.0,30.25,SW,236,2.0,8.0,83,0.00,,,0.00,,2013-02-02 08:41:00,
2013-02-02 03:53:00,16.0,13.0,30.25,South,180,3.0,7.0,86,0.00,,,0.00,,2013-02-02 08:53:00,
2013-02-02 04:01:00,15.0,12.0,30.24,SW,221,3.0,7.0,87,0.00,,,0.00,,2013-02-02 09:01:00,
2013-02-02 04:11:00,15.0,12.0,30.24,SW,221,3.0,7.0,87,0.00,,,0.00,,2013-02-02 09:11:00,
2013-02-02 04:22:00,15.0,12.0,30.24,SW,217,2.0,7.0,88,0.00,,,0.00,,2013-02-02 09:22:00,
2013-02-02 04:32:00,15.0,12.0,30.23,SSW,213,1.0,8.0,89,0.00,,,0.00,,2013-02-02 09:32:00,
2013-02-02 04:42:00,15.0,12.0,30.23,SSW,213,1.0,8.0,89,0.00,,,0.00,,2013-02-02 09:42:00,
2013-02-02 04:52:00,15.0,13.0,30.22,SW,233,4.0,11.0,90,0.00,,,0.00,,2013-02-02 09:52:00,
2013-02-02 05:02:00,16.0,14.0,30.21,SSW,195,3.0,9.0,90,0.00,,,0.00,,2013-02-02 10:02:00,
2013-02-02 05:11:00,16.0,14.0,30.21,SSW,195,3.0,9.0,90,0.00,,,0.00,,2013-02-02 10:11:00,
2013-02-02 05:21:00,16.0,13.0,30.20,SSW,196,6.0,13.0,89,0.00,,,0.00,,2013-02-02 10:21:00,
2013-02-02 05:32:00,16.0,13.0,30.19,SSW,193,3.0,9.0,89,0.00,,,0.00,,2013-02-02 10:32:00,
2013-02-02 05:42:00,16.0,13.0,30.19,SSW,193,3.0,9.0,89,0.00,,,0.00,,2013-02-02 10:42:00,
2013-02-02 05:52:00,16.0,13.0,30.18,South,186,7.0,11.0,89,0.00,,,0.00,,2013-02-02 10:52:00,
2013-02-02 06:02:00,16.0,14.0,30.16,South,188,6.0,11.0,90,0.00,,,0.00,,2013-02-02 11:02:00,
2013-02-02 06:11:00,16.0,14.0,30.16,South,188,6.0,11.0,90,0.00,,,0.00,,2013-02-02 11:11:00,
2013-02-02 06:22:00,16.0,14.0,30.16,South,188,5.0,9.0,90,0.00,,,0.00,,2013-02-02 11:22:00,
2013-02-02 06:32:00,17.0,14.0,30.14,SSW,194,6.0,11.0,89,0.00,,,0.00,,2013-02-02 11:32:00,
2013-02-02 06:42:00,17.0,14.0,30.14,SSW,194,6.0,11.0,89,0.00,,,0.00,,2013-02-02 11:42:00,
2013-02-02 06:52:00,17.0,14.0,30.14,SSW,199,8.0,12.0,89,0.00,,,0.00,,2013-02-02 11:52:00,
2013-02-02 07:02:00,17.0,14.0,30.14,South,188,7.0,13.0,89,0.00,,,0.00,,2013-02-02 12:02:00,
2013-02-02 07:11:00,17.0,14.0,30.14,South,188,7.0,13.0,89,0.00,,,0.00,,2013-02-02 12:11:00,
2013-02-02 07:22:00,17.0,15.0,30.14,SSW,201,5.0,9.0,90,0.00,,,0.00,,2013-02-02 12:22:00,
2013-02-02 07:32:00,17.0,14.0,30.14,SSW,206,6.0,13.0,89,0.00,,,0.00,,2013-02-02 12:32:00,
2013-02-02 07:42:00,17.0,14.0,30.14,SSW,206,6.0,13.0,89,0.00,,,0.00,,2013-02-02 12:42:00,
2013-02-02 07:52:00,17.0,14.0,30.13,SSW,213,3.0,11.0,89,0.00,,,0.00,,2013-02-02 12:52:00,
2013-02-02 08:03:00,17.0,14.0,30.13,South,189,3.0,11.0,89,0.00,,,0.00,,2013-02-02 13:03:00,
2013-02-02 08:11:00,17.0,14.0,30.13,South,189,3.0,11.0,89,0.00,,,0.00,,2013-02-02 13:11:00,
2013-02-02 08:22:00,17.0,14.0,30.12,South,187,4.0,10.0,89,0.00,,,0.00,,2013-02-02 13:22:00,
2013-02-02 08:32:00,18.0,15.0,30.12,SSW,198,3.0,10.0,89,0.00,,,0.00,,2013-02-02 13:32:00,
2013-02-02 08:42:00,18.0,15.0,30.12,SSW,198,3.0,10.0,89,0.00,,,0.00,,2013-02-02 13:42:00,
2013-02-02 08:52:00,18.0,15.0,30.11,South,175,4.0,8.0,89,0.00,,,0.00,,2013-02-02 13:52:00,
2013-02-02 09:03:00,18.0,16.0,30.11,SSW,212,3.0,7.0,90,0.00,,,0.00,,2013-02-02 14:03:00,
2013-02-02 09:11:00,18.0,16.0,30.11,SSW,212,3.0,7.0,90,0.00,,,0.00,,2013-02-02 14:11:00,
2013-02-02 09:22:00,19.0,16.0,30.11,SSW,211,3.0,10.0,89,0.00,,,0.00,,2013-02-02 14:22:00,
2013-02-02 09:32:00,19.0,16.0,30.10,SW,217,3.0,8.0,89,0.00,,,0.00,,2013-02-02 14:32:00,
2013-02-02 09:42:00,19.0,16.0,30.10,SW,217,3.0,8.0,89,0.00,,,0.00,,2013-02-02 14:42:00,
2013-02-02 09:52:00,19.0,17.0,30.10,SW,223,4.0,7.0,90,0.00,,,0.00,,2013-02-02 14:52:00,
2013-02-02 10:03:00,20.0,18.0,30.09,SSW,209,4.0,8.0,90,0.00,,,0.00,,2013-02-02 15:03:00,
2013-02-02 10:12:00,20.0,18.0,30.09,SSW,209,4.0,8.0,90,0.00,,,0.00,,2013-02-02 15:12:00,
2013-02-02 10:22:00,20.0,18.0,30.09,SW,224,4.0,8.0,90,0.00,,,0.00,,2013-02-02 15:22:00,
2013-02-02 10:32:00,20.0,18.0,30.09,SW,221,3.0,9.0,90,0.00,,,0.00,,2013-02-02 15:32:00,
2013-02-02 10:42:00,20.0,18.0,30.09,SW,221,3.0,9.0,90,0.00,,,0.00,,2013-02-02 15:42:00,
2013-02-02 10:52:00,20.0,18.0,30.08,SSW,207,4.0,9.0,91,0.00,,,0.00,,2013-02-02 15:52:00,
2013-02-02 11:03:00,20.0,18.0,30.07,SSW,201,3.0,11.0,91,0.00,,,0.00,,2013-02-02 16:03:00,
2013-02-02 11:12:00,20.0,18.0,30.07,SSW,201,3.0,11.0,91,0.00,,,0.00,,2013-02-02 16:12:00,
2013-02-02 11:23:00,21.0,19.0,30.06,SSW,211,5.0,11.0,91,0.00,,,0.00,,2013-02-02 16:23:00,
2013-02-02 11:32:00,21.0,19.0,30.06,SSW,205,5.0,10.0,91,0.00,,,0.00,,2013-02-02 16:32:00,
2013-02-02 11:42:00,21.0,19.0,30.06,SSW,205,5.0,10.0,91,0.00,,,0.00,,2013-02-02 16:42:00,
2013-02-02 11:52:00,21.0,19.0,30.06,SW,217,5.0,9.0,91,0.00,,,0.00,,2013-02-02 16:52:00,
2013-02-02 12:03:00,22.0,20.0,30.05,SW,234,4.0,9.0,91,0.00,,,0.00,,2013-02-02 17:03:00,
2013-02-02 12:11:00,22.0,20.0,30.05,SW,234,4.0,9.0,91,0.00,,,0.00,,2013-02-02 17:11:00,
2013-02-02 12:23:00,22.0,20.0,30.04,WSW,244,5.0,9.0,90,0.00,,,0.00,,2013-02-02 17:23:00,
2013-02-02 12:32:00,22.0,19.0,30.04,SW,223,4.0,9.0,89,0.00,,,0.00,,2013-02-02 17:32:00,
2013-02-02 12:42:00,22.0,19.0,30.04,SW,223,4.0,9.0,89,0.00,,,0.00,,2013-02-02 17:42:00,
2013-02-02 12:53:00,22.0,19.0,30.03,WSW,250,5.0,11.0,88,0.00,,,0.00,,2013-02-02 17:53:00,
2013-02-02 13:03:00,23.0,20.0,30.03,WSW,252,5.0,11.0,88,0.00,,,0.00,,2013-02-02 18:03:00,
2013-02-02 13:12:00,23.0,20.0,30.03,WSW,252,5.0,11.0,88,0.00,,,0.00,,2013-02-02 18:12:00,
2013-02-02 13:22:00,23.0,20.0,30.02,WSW,252,7.0,12.0,88,0.00,,,0.00,,2013-02-02 18:22:00,
2013-02-02 13:32:00,23.0,20.0,30.02,SW,235,5.0,11.0,88,0.00,,,0.00,,2013-02-02 18:32:00,
2013-02-02 13:42:00,23.0,20.0,30.02,SW,235,5.0,11.0,88,0.00,,,0.00,,2013-02-02 18:42:00,
2013-02-02 13:52:00,23.0,20.0,30.02,SW,235,5.0,11.0,88,0.00,,,0.00,,2013-02-02 18:52:00,
2013-02-02 14:02:00,23.0,20.0,30.01,SW,236,4.0,7.0,89,0.00,,,0.00,,2013-02-02 19:02:00,
2013-02-02 14:12:00,23.0,20.0,30.01,SW,236,4.0,7.0,89,0.00,,,0.00,,2013-02-02 19:12:00,
2013-02-02 14:22:00,24.0,21.0,30.01,WSW,246,5.0,8.0,88,0.00,,,0.00,,2013-02-02 19:22:00,
2013-02-02 14:32:00,24.0,21.0,30.01,WSW,246,5.0,8.0,88,0.00,,,0.00,,2013-02-02 19:32:00,
2013-02-02 14:42:00,24.0,21.0,30.01,WSW,246,5.0,8.0,88,0.00,,,0.00,,2013-02-02 19:42:00,
2013-02-02 14:52:00,24.0,21.0,30.00,SW,223,5.0,10.0,88,0.00,,,0.00,,2013-02-02 19:52:00,
2013-02-02 15:02:00,24.0,21.0,30.00,WSW,250,4.0,9.0,87,0.00,,,0.00,,2013-02-02 20:02:00,
2013-02-02 15:12:00,24.0,21.0,30.00,WSW,250,4.0,9.0,87,0.00,,,0.00,,2013-02-02 20:12:00,
2013-02-02 15:22:00,24.0,21.0,30.00,WSW,239,4.0,10.0,87,0.00,,,0.00,,2013-02-02 20:22:00,
2013-02-02 15:32:00,24.0,21.0,30.00,WSW,238,3.0,8.0,87,0.00,,,0.00,,2013-02-02 20:32:00,
2013-02-02 15:42:00,24.0,21.0,30.00,WSW,238,3.0,8.0,87,0.00,,,0.00,,2013-02-02 20:42:00,
2013-02-02 15:52:00,24.0,20.0,30.00,WSW,240,5.0,9.0,86,0.00,,,0.00,,2013-02-02 20:52:00,
2013-02-02 16:02:00,24.0,21.0,30.00,WSW,246,4.0,9.0,87,0.00,,,0.00,,2013-02-02 21:02:00,
2013-02-02 16:11:00,24.0,21.0,30.00,WSW,246,4.0,9.0,87,0.00,,,0.00,,2013-02-02 21:11:00,
2013-02-02 16:21:00,24.0,21.0,30.00,SW,232,4.0,9.0,87,0.00,,,0.00,,2013-02-02 21:21:00,
2013-02-02 16:32:00,24.0,21.0,30.01,SW,234,3.0,6.0,88,0.00,,,0.00,,2013-02-02 21:32:00,
2013-02-02 16:42:00,24.0,21.0,30.01,SW,234,3.0,6.0,88,0.00,,,0.00,,2013-02-02 21:42:00,
2013-02-02 16:52:00,24.0,21.0,30.01,West,271,4.0,7.0,88,0.00,,,0.00,,2013-02-02 21:52:00,
2013-02-02 17:03:00,24.0,21.0,30.01,WSW,248,3.0,7.0,88,0.00,,,0.00,,2013-02-02 22:03:00,
2013-02-02 17:12:00,24.0,21.0,30.01,WSW,248,3.0,7.0,88,0.00,,,0.00,,2013-02-02 22:12:00,
2013-02-02 17:21:00,24.0,21.0,30.01,WSW,238,3.0,7.0,88,0.00,,,0.00,,2013-02-02 22:21:00,
2013-02-02 17:32:00,24.0,21.0,30.01,WSW,251,3.0,7.0,89,0.00,,,0.00,,2013-02-02 22:32:00,
2013-02-02 17:42:00,24.0,21.0,30.01,WSW,251,3.0,7.0,89,0.00,,,0.00,,2013-02-02 22:42:00,
2013-02-02 17:52:00,24.0,21.0,30.01,WSW,240,3.0,6.0,89,0.00,,,0.00,,2013-02-02 22:52:00,
2013-02-02 18:02:00,24.0,21.0,30.01,WSW,250,3.0,6.0,89,0.00,,,0.00,,2013-02-02 23:02:00,
2013-02-02 18:11:00,24.0,21.0,30.01,WSW,250,3.0,6.0,89,0.00,,,0.00,,2013-02-02 23:11:00,
2013-02-02 18:22:00,24.0,22.0,30.02,WSW,250,2.0,6.0,90,0.00,,,0.00,,2013-02-02 23:22:00,
2013-02-02 18:32:00,24.0,22.0,30.02,NW,309,6.0,10.0,91,0.00,,,0.00,,2013-02-02 23:32:00,
2013-02-02 18:42:00,24.0,22.0,30.02,NW,309,6.0,10.0,91,0.00,,,0.00,,2013-02-02 23:42:00,
2013-02-02 18:52:00,21.0,19.0,30.03,NW,324,6.0,12.0,90,0.00,,,0.00,,2013-02-02 23:52:00,
2013-02-02 19:02:00,20.0,18.0,30.04,NNW,336,5.0,10.0,91,0.00,,,0.00,,2013-02-03 00:02:00,
2013-02-02 19:11:00,20.0,18.0,30.04,NNW,336,5.0,10.0,91,0.00,,,0.00,,2013-02-03 00:11:00,
2013-02-02 19:22:00,20.0,18.0,30.04,NNW,347,4.0,7.0,91,0.00,,,0.00,,2013-02-03 00:22:00,
2013-02-02 19:32:00,20.0,18.0,30.04,NNW,342,3.0,6.0,91,0.00,,,0.00,,2013-02-03 00:32:00,
2013-02-02 19:42:00,20.0,18.0,30.04,NNW,342,3.0,6.0,91,0.00,,,0.00,,2013-02-03 00:42:00,
2013-02-02 19:52:00,20.0,18.0,30.05,NNW,339,2.0,6.0,91,0.00,,,0.00,,2013-02-03 00:52:00,
2013-02-02 20:02:00,19.0,17.0,30.05,NNW,338,1.0,4.0,91,0.00,,,0.00,,2013-02-03 01:02:00,
2013-02-02 20:11:00,19.0,17.0,30.05,NNW,338,1.0,4.0,91,0.00,,,0.00,,2013-02-03 01:11:00,
2013-02-02 20:21:00,19.0,17.0,30.05,NNW,332,1.0,4.0,90,0.00,,,0.00,,2013-02-03 01:21:00,
2013-02-02 20:32:00,19.0,17.0,30.05,NNW,332,1.0,3.0,90,0.00,,,0.00,,2013-02-03 01:32:00,
2013-02-02 20:42:00,19.0,17.0,30.05,NNW,332,1.0,3.0,90,0.00,,,0.00,,2013-02-03 01:42:00,
2013-02-02 20:52:00,19.0,17.0,30.06,NW,310,2.0,4.0,90,0.00,,,0.00,,2013-02-03 01:52:00,
2013-02-02 21:01:00,18.0,16.0,30.05,NW,314,0.0,3.0,90,0.00,,,0.00,,2013-02-03 02:01:00,
2013-02-02 21:11:00,18.0,16.0,30.05,NW,314,0.0,3.0,90,0.00,,,0.00,,2013-02-03 02:11:00,
2013-02-02 21:21:00,18.0,16.0,30.06,NW,314,1.0,3.0,90,0.00,,,0.00,,2013-02-03 02:21:00,
2013-02-02 21:32:00,18.0,16.0,30.06,NW,314,0.0,2.0,90,0.00,,,0.00,,2013-02-03 02:32:00,
2013-02-02 21:42:00,18.0,16.0,30.06,NW,314,0.0,2.0,90,0.00,,,0.00,,2013-02-03 02:42:00,
2013-02-02 21:52:00,18.0,16.0,30.06,NW,311,1.0,3.0,90,0.00,,,0.00,,2013-02-03 02:52:00,
2013-02-02 22:02:00,18.0,16.0,30.07,WNW,303,1.0,3.0,90,0.00,,,0.00,,2013-02-03 03:02:00,
2013-02-02 22:11:00,18.0,16.0,30.07,WNW,303,1.0,3.0,90,0.00,,,0.00,,2013-02-03 03:11:00,
2013-02-02 22:22:00,18.0,15.0,30.06,WNW,303,0.0,2.0,89,0.00,,,0.00,,2013-02-03 03:22:00,
2013-02-02 22:32:00,17.0,14.0,30.06,WNW,303,0.0,2.0,89,0.00,,,0.00,,2013-02-03 03:32:00,
2013-02-02 22:42:00,17.0,14.0,30.06,WNW,303,0.0,2.0,89,0.00,,,0.00,,2013-02-03 03:42:00,
2013-02-02 22:52:00,17.0,14.0,30.06,NNW,333,0.0,3.0,88,0.00,,,0.00,,2013-02-03 03:52:00,
2013-02-02 23:01:00,17.0,14.0,30.06,NNW,333,0.0,3.0,88,0.00,,,0.00,,2013-02-03 04:01:00,
2013-02-02 23:11:00,17.0,14.0,30.06,NNW,333,0.0,3.0,88,0.00,,,0.00,,2013-02-03 04:11:00,
2013-02-02 23:22:00,17.0,14.0,30.06,NNW,333,0.0,2.0,88,0.00,,,0.00,,2013-02-03 04:22:00,
2013-02-02 23:32:00,17.0,14.0,30.05,NNW,333,0.0,2.0,88,0.00,,,0.00,,2013-02-03 04:32:00,
2013-02-02 23:42:00,17.0,14.0,30.05,NNW,333,0.0,2.0,88,0.00,,,0.00,,2013-02-03 04:42:00,
2013-02-02 23:52:00,17.0,14.0,30.05,NW,325,1.0,3.0,86,0.00,,,0.00,,2013-02-03 04:52:00,